In Rescue
 
Open Full Screen Window  High Contrast Mode
Wind Gusting 00 knots
08
March 01, 2024 2:36 PM EST
Weather Information
Wind Direction
  160 °
Wind Speed
  08 kt (9 mph)
Wind Gust
  00 kt (0 mph)
Variable Wind
120°
190°
Altimeter
30.26 in
Visibility
10 SM
Temperature
09° C
48° F
Dewpoint
-10° C
14° F
Humidity
25%
Sky Condition
Clear
VFR

METAR KPOV 011936Z AUTO 16008KT 120V190 10SM CLR 09/M10 A3026 RMK AO2 T00911101 PWINO

FAA Disclaimer: The data displayed is for advisory purposes only and is not to be used for flight planning or operations.